»·PEaware :: N982CA KBUR-KSMX

N982CA :: KBUR-KSMX

FLIGHT INFORMATION

Flight Status: Arrived
Operator: Privately registered:
United States
More flights under this callsign
Pilot: Anonymous 15639 (15639)
Aircraft: Unknown
(DA62)
More flights by this aircraft type
Origin: KBUR Bob Hope-Burbank
United States
Destination: KSMX Santa Maria Pub/Capt Hancock
United States
More flights between these airports :: More routes between these airports
Route: +VNY3 FIM V386 RZS V12 GVO
File this flight plan on PilotEdge
Remarks:
Altitude:
(Current/Filed)
8,000ft
Speed:
(Current/Filed)
180kts
Departed: 13-Jun-18 09:10 AM
Arrived: 13-Jun-18 09:58 AM
Distance/Time
Traveled:
112nm/0:48
Distance/Time
To Go:
Arrived

Flight Plot

Page will automatically refresh every two minutes.

Flight plan parsing failed; only flown route is shown


Map Options




Map Legend


Flown Route
Filed Route
Departure Airport
Arrival Airport
Navaid (VOR, NDB)
Fix

Horizontal Profiles

Position Reports

Time Latitude Longitude Heading Altitude Ground
Speed
13-Jun-18 08:52 34.200440 -118.363605 182 780ft 0kts
13-Jun-18 08:53 34.200440 -118.363605 182 780ft 0kts
13-Jun-18 08:54 34.200440 -118.363605 182 780ft 0kts
13-Jun-18 08:55 34.200440 -118.363605 182 780ft 0kts
13-Jun-18 08:56 34.200440 -118.363605 182 780ft 0kts
13-Jun-18 08:57 34.200440 -118.363605 182 780ft 0kts
13-Jun-18 08:58 34.200440 -118.363605 182 780ft 0kts
13-Jun-18 08:59 34.200440 -118.363605 182 780ft 0kts
13-Jun-18 09:00 34.200440 -118.363605 182 780ft 0kts
13-Jun-18 09:01 34.200440 -118.363605 182 780ft 0kts
13-Jun-18 09:02 34.200440 -118.363605 182 780ft 0kts
13-Jun-18 09:03 34.200186 -118.363863 256 780ft 3kts
13-Jun-18 09:04 34.199051 -118.364705 251 780ft 7kts
13-Jun-18 09:05 34.199107 -118.367748 270 780ft 10kts
13-Jun-18 09:06 34.198755 -118.368982 181 780ft 0kts
13-Jun-18 09:07 34.198755 -118.368982 181 780ft 0kts
13-Jun-18 09:08 34.198755 -118.368982 181 780ft 0kts
13-Jun-18 09:09 34.197901 -118.367446 92 780ft 36kts
13-Jun-18 09:10 34.187511 -118.346953 193 1426ft 109kts
13-Jun-18 09:11 34.164254 -118.372196 224 2515ft 116kts
13-Jun-18 09:12 34.141561 -118.400456 224 3584ft 118kts
13-Jun-18 09:13 34.115857 -118.432341 225 4020ft 157kts
13-Jun-18 09:14 34.106986 -118.482272 271 4517ft 152kts
13-Jun-18 09:15 34.107954 -118.531980 271 5309ft 145kts
13-Jun-18 09:16 34.108819 -118.580578 271 6005ft 151kts
13-Jun-18 09:17 34.109953 -118.636481 272 6018ft 175kts
13-Jun-18 09:18 34.111285 -118.694715 271 6016ft 175kts
13-Jun-18 09:19 34.112794 -118.753477 271 6017ft 175kts
13-Jun-18 09:20 34.114544 -118.812463 271 6017ft 175kts
13-Jun-18 09:21 34.116376 -118.871347 271 6018ft 175kts
13-Jun-18 09:22 34.118224 -118.930250 271 6017ft 175kts
13-Jun-18 09:23 34.120060 -118.986510 271 6569ft 157kts
13-Jun-18 09:24 34.122004 -119.037660 271 7354ft 150kts
13-Jun-18 09:25 34.124572 -119.087717 272 7995ft 156kts
13-Jun-18 09:26 34.127634 -119.143881 272 7996ft 172kts
13-Jun-18 09:27 34.130751 -119.201897 272 7993ft 173kts
13-Jun-18 09:28 34.133879 -119.260215 272 7991ft 173kts
13-Jun-18 09:29 34.136987 -119.318206 272 7990ft 173kts
13-Jun-18 09:30 34.140112 -119.376310 272 7990ft 173kts
13-Jun-18 09:31 34.143248 -119.434434 272 7990ft 173kts
13-Jun-18 09:32 34.146407 -119.492567 273 7990ft 173kts
13-Jun-18 09:33 34.172714 -119.541516 307 7990ft 176kts
13-Jun-18 09:34 34.198223 -119.580298 307 7990ft 176kts
13-Jun-18 09:35 34.228703 -119.626722 307 7990ft 177kts
13-Jun-18 09:36 34.264272 -119.681084 306 7990ft 177kts
13-Jun-18 09:37 34.294805 -119.727911 307 7990ft 177kts
13-Jun-18 09:38 34.325401 -119.774700 307 7990ft 177kts
13-Jun-18 09:39 34.355957 -119.821672 306 7990ft 177kts
13-Jun-18 09:40 34.381407 -119.860819 307 7990ft 177kts
13-Jun-18 09:41 34.411930 -119.907769 307 7990ft 177kts
13-Jun-18 09:42 34.442477 -119.955027 307 7989ft 178kts
13-Jun-18 09:43 34.473346 -120.003416 307 7442ft 188kts
13-Jun-18 09:44 34.504179 -120.052880 307 6573ft 190kts
13-Jun-18 09:45 34.537708 -120.100934 336 5669ft 186kts
13-Jun-18 09:46 34.581172 -120.133250 325 4770ft 182kts
13-Jun-18 09:47 34.622334 -120.167999 325 3987ft 173kts
13-Jun-18 09:48 34.658946 -120.204472 325 3283ft 170kts
13-Jun-18 09:49 34.696356 -120.236149 325 2977ft 152kts
13-Jun-18 09:50 34.727095 -120.262196 325 2981ft 139kts
13-Jun-18 09:51 34.759059 -120.288350 323 2992ft 137kts
13-Jun-18 09:52 34.786624 -120.319207 305 2983ft 139kts
13-Jun-18 09:53 34.813846 -120.352337 319 2983ft 138kts
13-Jun-18 09:54 34.838891 -120.381900 315 2415ft 106kts
13-Jun-18 09:55 34.859233 -120.405728 316 1553ft 100kts
13-Jun-18 09:56 34.877813 -120.427909 315 862ft 90kts
13-Jun-18 09:57 34.895206 -120.448718 315 265ft 70kts
13-Jun-18 09:58 34.898838 -120.451456 90 265ft 3kts
13-Jun-18 09:59 34.898838 -120.451163 89 265ft 0kts
13-Jun-18 10:00 34.898838 -120.451163 89 265ft 0kts

Navigation Log

Ident Type
Flight plan parsing failed, navigation log unavailable